createdAt,value
2022-10-24T00:04:22.068Z,14.21
2022-10-24T00:09:25.964Z,13.96
2022-10-24T00:14:29.025Z,13.97
2022-10-24T00:19:31.581Z,14.23
2022-10-24T00:24:35.491Z,14.41
2022-10-24T00:29:38.049Z,14.21
2022-10-24T00:34:40.871Z,14.09
2022-10-24T00:39:44.829Z,14.08
2022-10-24T00:44:49.477Z,14.09
2022-10-24T00:50:00.533Z,14.09
2022-10-24T00:55:06.517Z,14.18
2022-10-24T01:00:11.898Z,14.10
2022-10-24T01:05:15.127Z,14.19
2022-10-24T01:10:29.000Z,14.05
2022-10-24T01:15:37.600Z,14.06
2022-10-24T01:20:55.763Z,14.05
2022-10-24T01:26:12.037Z,14.06
2022-10-24T01:31:18.737Z,14.18
2022-10-24T01:36:26.447Z,14.20
2022-10-24T01:41:30.169Z,14.15
2022-10-24T01:46:37.183Z,14.12
2022-10-24T01:51:40.772Z,14.22
2022-10-24T01:56:43.351Z,14.14
2022-10-24T02:01:47.321Z,14.10
2022-10-24T02:06:50.333Z,13.95
2022-10-24T02:11:54.158Z,13.81
2022-10-24T02:16:58.035Z,13.86
2022-10-24T02:22:04.832Z,14.24
2022-10-24T02:27:09.240Z,14.35
2022-10-24T02:32:17.642Z,14.12
2022-10-24T02:37:20.431Z,14.10
2022-10-24T02:42:23.742Z,14.20
2022-10-24T02:47:28.302Z,14.19
2022-10-24T02:52:31.324Z,14.16
2022-10-24T02:57:34.122Z,14.14
2022-10-24T03:02:38.037Z,14.11
2022-10-24T03:07:40.677Z,14.14
2022-10-24T03:12:43.575Z,14.07
2022-10-24T03:17:49.079Z,14.23
2022-10-24T03:22:51.946Z,14.18
2022-10-24T03:27:54.572Z,14.13
2022-10-24T03:32:58.444Z,14.53
2022-10-24T03:38:01.007Z,14.21
2022-10-24T03:43:03.980Z,14.56
2022-10-24T03:48:08.011Z,14.56
2022-10-24T03:53:10.673Z,14.68
2022-10-24T03:58:13.259Z,14.92
2022-10-24T04:03:17.202Z,14.76
2022-10-24T04:08:19.859Z,14.91
2022-10-24T04:13:22.560Z,14.76
2022-10-24T04:18:26.553Z,14.93
2022-10-24T04:23:30.830Z,14.80
2022-10-24T04:28:33.372Z,14.71
2022-10-24T04:33:37.347Z,14.99
2022-10-24T04:38:39.887Z,15.15
2022-10-24T04:43:42.522Z,14.85
2022-10-24T04:48:46.499Z,15.20
2022-10-24T04:53:49.129Z,14.84
2022-10-24T04:58:51.775Z,15.05
2022-10-24T05:03:55.760Z,14.90
2022-10-24T05:08:58.398Z,14.70
2022-10-24T05:14:00.966Z,14.77
2022-10-24T05:19:04.873Z,14.82
2022-10-24T05:24:07.720Z,14.70
2022-10-24T05:29:10.320Z,14.90
2022-10-24T05:34:14.300Z,14.75
2022-10-24T05:39:16.889Z,14.84
2022-10-24T05:44:19.597Z,14.96
2022-10-24T05:49:24.655Z,14.80
2022-10-24T05:54:33.301Z,14.83
2022-10-24T05:59:45.256Z,14.71
2022-10-24T06:04:50.617Z,14.75
2022-10-24T06:09:53.735Z,14.54
2022-10-24T06:14:57.005Z,14.62
2022-10-24T06:20:00.915Z,14.50
2022-10-24T06:25:03.503Z,14.73
2022-10-24T06:30:07.890Z,14.53
2022-10-24T06:35:13.228Z,14.75
2022-10-24T06:40:16.008Z,14.57
2022-10-24T06:45:21.206Z,14.81
2022-10-24T06:50:25.179Z,14.58
2022-10-24T06:55:27.862Z,14.74
2022-10-24T07:00:30.457Z,14.77
2022-10-24T07:05:34.455Z,14.87
2022-10-24T07:10:37.134Z,14.83
2022-10-24T07:15:39.758Z,14.85
2022-10-24T07:20:43.667Z,15.12
2022-10-24T07:25:46.523Z,15.17
2022-10-24T07:30:49.091Z,15.27
2022-10-24T07:35:53.015Z,15.26
2022-10-24T07:40:55.669Z,15.66
2022-10-24T07:45:58.402Z,15.41
2022-10-24T07:51:06.287Z,15.58
2022-10-24T07:56:10.469Z,15.75
2022-10-24T08:01:15.563Z,15.82
2022-10-24T08:06:21.455Z,15.69
2022-10-24T08:11:25.495Z,15.79
2022-10-24T08:16:28.065Z,16.06
2022-10-24T08:21:33.426Z,16.06
2022-10-24T08:26:36.620Z,16.18
2022-10-24T08:31:39.650Z,16.28
2022-10-24T08:36:43.716Z,16.76
2022-10-24T08:41:48.814Z,16.81
2022-10-24T08:46:53.985Z,16.98
2022-10-24T08:52:00.306Z,16.95
2022-10-24T08:57:02.918Z,17.12
2022-10-24T09:02:07.984Z,17.12
2022-10-24T09:07:19.121Z,17.18
2022-10-24T09:12:22.743Z,17.21
2022-10-24T09:17:26.459Z,16.98
2022-10-24T09:22:33.399Z,17.01
2022-10-24T09:27:37.942Z,17.17
2022-10-24T09:32:42.142Z,17.09
2022-10-24T09:37:49.038Z,17.06
2022-10-24T09:42:55.079Z,17.03
2022-10-24T09:47:58.604Z,17.09
2022-10-24T09:53:04.090Z,17.04
2022-10-24T09:58:06.661Z,16.98
2022-10-24T10:03:24.085Z,16.95
2022-10-24T10:08:30.111Z,17.00
2022-10-24T10:13:38.202Z,16.96
2022-10-24T10:18:48.377Z,16.89
2022-10-24T10:23:53.813Z,16.85
2022-10-24T10:28:59.739Z,16.73
2022-10-24T10:34:16.057Z,16.73
2022-10-24T10:39:34.702Z,16.69
2022-10-24T10:44:48.098Z,16.75
2022-10-24T10:49:55.848Z,16.93
2022-10-24T10:55:19.712Z,16.87
2022-10-24T11:00:24.480Z,16.86
2022-10-24T11:05:40.227Z,16.83
2022-10-24T11:10:47.083Z,16.69
2022-10-24T11:15:52.519Z,16.81
2022-10-24T11:20:58.177Z,17.01
2022-10-24T11:26:04.692Z,17.00
2022-10-24T11:31:07.990Z,16.98
2022-10-24T11:36:19.178Z,16.97
2022-10-24T11:41:48.142Z,17.03
2022-10-24T11:46:54.467Z,17.06
2022-10-24T11:51:58.767Z,17.12
2022-10-24T11:57:04.282Z,17.12
2022-10-24T12:02:39.393Z,17.15
2022-10-24T12:08:07.100Z,17.22
2022-10-24T12:13:37.869Z,17.31
2022-10-24T12:18:42.391Z,17.28
2022-10-24T12:23:53.968Z,17.24
2022-10-24T12:28:59.411Z,17.17
2022-10-24T12:34:38.339Z,17.07
2022-10-24T12:39:45.765Z,16.97
2022-10-24T12:44:52.006Z,16.96
2022-10-24T12:49:54.776Z,16.90
2022-10-24T12:54:57.887Z,16.85
2022-10-24T13:00:02.528Z,16.80
2022-10-24T13:05:15.706Z,16.71
2022-10-24T13:10:31.623Z,16.67
2022-10-24T13:15:42.771Z,16.80
2022-10-24T13:20:46.757Z,16.80
2022-10-24T13:25:56.447Z,16.63
2022-10-24T13:31:32.078Z,16.63
2022-10-24T13:36:36.034Z,16.56
2022-10-24T13:41:41.546Z,16.64
2022-10-24T13:46:50.235Z,16.72
2022-10-24T13:52:01.600Z,16.73
2022-10-24T13:57:04.656Z,16.75
2022-10-24T14:02:14.727Z,16.69
2022-10-24T14:07:20.698Z,16.76
2022-10-24T14:12:26.091Z,16.87
2022-10-24T14:17:30.719Z,16.71
2022-10-24T14:22:39.699Z,16.59
2022-10-24T14:27:42.944Z,16.54
2022-10-24T14:32:45.688Z,16.52
2022-10-24T14:37:49.644Z,16.58
2022-10-24T14:42:52.859Z,16.47
2022-10-24T14:47:56.811Z,16.40
2022-10-24T14:53:21.317Z,16.42
2022-10-24T14:58:25.917Z,16.43
2022-10-24T15:03:29.606Z,16.36
2022-10-24T15:08:39.051Z,16.34
2022-10-24T15:13:50.919Z,16.39
2022-10-24T15:19:04.040Z,16.37
2022-10-24T15:24:17.710Z,16.46
2022-10-24T15:29:21.736Z,16.35
2022-10-24T15:34:27.146Z,16.33
2022-10-24T15:39:31.433Z,16.29
2022-10-24T15:44:35.435Z,16.29
2022-10-24T15:49:38.016Z,16.17
2022-10-24T15:54:42.650Z,16.10
2022-10-24T15:59:45.261Z,16.04
2022-10-24T16:04:48.068Z,15.94
2022-10-24T16:09:52.076Z,15.89
2022-10-24T16:14:54.648Z,15.85
2022-10-24T16:19:57.249Z,15.67
2022-10-24T16:25:01.222Z,14.94
2022-10-24T16:30:03.845Z,14.66
2022-10-24T16:35:07.682Z,14.79
2022-10-24T16:40:12.405Z,14.72
2022-10-24T16:45:15.031Z,14.67
2022-10-24T16:50:23.687Z,14.50
2022-10-24T16:55:28.562Z,14.44
2022-10-24T17:00:31.192Z,14.51
2022-10-24T17:05:33.814Z,14.46
2022-10-24T17:10:38.121Z,14.40
2022-10-24T17:15:40.719Z,14.54
2022-10-24T17:20:44.271Z,14.48
2022-10-24T17:25:48.708Z,14.46
2022-10-24T17:35:59.127Z,14.45
2022-10-24T17:41:09.112Z,14.32
2022-10-24T17:46:13.471Z,14.37
2022-10-24T17:51:17.790Z,14.33
2022-10-24T17:56:24.808Z,14.23
2022-10-24T18:01:28.470Z,14.21
2022-10-24T18:06:31.196Z,14.18
2022-10-24T18:11:35.149Z,13.98
2022-10-24T18:16:38.811Z,13.91
2022-10-24T18:21:41.378Z,13.83
2022-10-24T18:26:47.671Z,13.87
2022-10-24T18:31:50.260Z,13.84
2022-10-24T18:36:52.842Z,13.92
2022-10-24T18:41:58.169Z,13.85
2022-10-24T18:47:02.563Z,13.81
2022-10-24T18:52:14.660Z,13.83
2022-10-24T18:57:22.886Z,13.82
2022-10-24T19:02:29.494Z,13.83
2022-10-24T19:07:32.463Z,13.83
2022-10-24T19:12:36.744Z,13.71
2022-10-24T19:17:39.376Z,13.71
2022-10-24T19:22:42.206Z,13.61
2022-10-24T19:27:46.276Z,13.59
2022-10-24T19:32:49.220Z,13.61
2022-10-24T19:37:51.950Z,13.55
2022-10-24T19:42:55.945Z,13.50
2022-10-24T19:47:59.638Z,13.46
2022-10-24T19:53:02.411Z,13.42
2022-10-24T19:58:09.798Z,13.36
2022-10-24T20:03:12.398Z,13.32
2022-10-24T20:08:15.096Z,13.27
2022-10-24T20:13:19.131Z,13.15
2022-10-24T20:18:22.066Z,13.25
2022-10-24T20:23:25.510Z,13.19
2022-10-24T20:28:29.657Z,13.17
2022-10-24T20:33:32.243Z,13.09
2022-10-24T20:38:34.838Z,13.10
2022-10-24T20:43:38.840Z,13.03
2022-10-24T20:48:41.458Z,13.05
2022-10-24T20:53:44.452Z,13.07
2022-10-24T20:58:48.382Z,13.02
2022-10-24T21:03:51.921Z,12.93
2022-10-24T21:08:56.667Z,12.84
2022-10-24T21:14:02.325Z,12.95
2022-10-24T21:19:05.220Z,13.02
2022-10-24T21:24:08.598Z,12.85
2022-10-24T21:29:32.256Z,12.91
2022-10-24T21:34:35.234Z,12.65
2022-10-24T21:39:37.827Z,12.57
2022-10-24T21:44:41.764Z,12.63
2022-10-24T21:49:44.337Z,12.66
2022-10-24T21:54:46.939Z,12.70
2022-10-24T21:59:50.845Z,12.73
2022-10-24T22:04:53.404Z,12.72
2022-10-24T22:09:55.970Z,12.74
2022-10-24T22:14:59.878Z,12.88
2022-10-24T22:20:02.430Z,12.89
2022-10-24T22:25:05.683Z,12.89
2022-10-24T22:30:10.633Z,12.76
2022-10-24T22:35:14.484Z,12.82
2022-10-24T22:40:23.163Z,12.81
2022-10-24T22:45:28.160Z,12.88
2022-10-24T22:50:48.899Z,12.95
2022-10-24T22:56:12.245Z,12.90
2022-10-24T23:01:26.183Z,12.91
2022-10-24T23:06:34.903Z,12.84
2022-10-24T23:11:37.944Z,12.96
2022-10-24T23:16:47.331Z,12.93
2022-10-24T23:21:53.366Z,12.92
2022-10-24T23:27:21.691Z,12.76
2022-10-24T23:32:27.841Z,12.81
2022-10-24T23:37:33.853Z,12.89
2022-10-24T23:42:36.996Z,12.85
2022-10-24T23:47:56.287Z,13.00
2022-10-24T23:53:12.324Z,12.93
2022-10-24T23:58:14.898Z,12.91
